Time;durP1;ratioP1;P1;durP2;ratioP2;P2;SDS_P1;SDS_P2;PMS_P1;PMS_P2;Temp;Humidity;BMP_temperature;BMP_pressure;BME280_temperature;BME280_humidity;BME280_pressure;Samples;Min_cycle;Max_cycle;Signal;HPM_P1;HPM_P2
2022/06/18 00:00:45;;;;;;;6.70;3.50;;;;;;;13.33;77.86;97377.63;107105;1274;109269;-80
2022/06/18 00:03:18;;;;;;;5.70;3.50;;;;;;;13.35;77.78;97377.86;106937;1274;168758;-80
2022/06/18 00:05:52;;;;;;;7.00;3.50;;;;;;;13.37;77.91;97382.13;107065;1274;101500;-80
2022/06/18 00:08:27;;;;;;;6.10;3.90;;;;;;;13.41;77.75;97380.84;106852;1274;169667;-80
2022/06/18 00:13:39;;;;;;;6.90;4.10;;;;;;;13.44;77.57;97376.96;107123;1274;119700;-80
2022/06/18 00:13:53;;;;;;;5.00;3.10;;;;;;;13.49;77.57;97373.77;106846;1274;146466;-80
2022/06/18 00:16:25;;;;;;;5.50;3.80;;;;;;;13.53;77.52;97373.34;107148;1273;90268;-80
2022/06/18 00:18:56;;;;;;;6.80;3.50;;;;;;;13.57;77.47;97368.83;106836;1274;168194;-80
2022/06/18 00:21:28;;;;;;;4.50;3.50;;;;;;;13.59;77.30;97374.08;107015;1274;179136;-80
2022/06/18 00:23:59;;;;;;;7.40;3.60;;;;;;;13.60;77.16;97377.37;105469;1274;1681409;-80
2022/06/18 00:26:30;;;;;;;6.90;3.70;;;;;;;13.60;77.13;97373.64;107124;1274;100454;-80
2022/06/18 00:29:02;;;;;;;7.00;3.80;;;;;;;13.58;76.93;97374.15;106192;1274;1311021;-80
2022/06/18 00:31:33;;;;;;;8.20;3.60;;;;;;;13.56;76.95;97378.00;106997;1274;153709;-80
2022/06/18 00:34:05;;;;;;;6.90;3.90;;;;;;;13.53;76.90;97376.05;107103;1274;100116;-80
2022/06/18 00:36:39;;;;;;;5.60;3.40;;;;;;;13.50;76.73;97373.24;106928;1274;122393;-80
2022/06/18 00:39:16;;;;;;;7.70;3.60;;;;;;;13.49;76.79;97369.35;107304;1274;38639;-81
2022/06/18 00:41:52;;;;;;;4.90;3.60;;;;;;;13.50;76.65;97366.20;105470;1274;2028884;-80
2022/06/18 00:44:34;;;;;;;5.90;3.80;;;;;;;13.49;76.83;97363.33;107068;1274;114106;-80
2022/06/18 00:47:15;;;;;;;5.30;3.60;;;;;;;13.51;76.79;97359.80;106780;1274;171208;-80
2022/06/18 00:49:52;;;;;;;5.80;3.80;;;;;;;13.51;76.87;97356.03;107079;1274;95412;-80
2022/06/18 00:52:33;;;;;;;5.60;3.50;;;;;;;13.50;76.88;97361.15;105967;1274;1335197;-80
2022/06/18 00:55:10;;;;;;;9.00;3.70;;;;;;;13.46;76.95;97359.73;107125;1274;123672;-80
2022/06/18 00:57:48;;;;;;;5.40;3.60;;;;;;;13.45;77.07;97359.21;105836;1274;1785896;-80
2022/06/18 01:00:24;;;;;;;5.90;3.50;;;;;;;13.42;77.15;97360.91;107140;1274;102854;-80
2022/06/18 01:02:56;;;;;;;6.10;3.80;;;;;;;13.40;77.19;97357.56;106807;1275;190218;-80
2022/06/18 01:05:35;;;;;;;5.70;3.50;;;;;;;13.37;77.02;97357.63;107045;1274;94872;-80
2022/06/18 01:08:13;;;;;;;6.10;3.20;;;;;;;13.36;76.98;97359.38;105595;1274;1979473;-80
2022/06/18 01:10:48;;;;;;;5.40;3.40;;;;;;;13.34;77.09;97360.52;107012;1274;169962;-80
2022/06/18 01:13:24;;;;;;;5.70;3.10;;;;;;;13.34;77.13;97358.33;106884;1275;168676;-80
2022/06/18 01:15:58;;;;;;;7.30;3.30;;;;;;;13.37;77.13;97354.90;106995;1273;112161;-80
2022/06/18 01:18:32;;;;;;;5.70;3.50;;;;;;;13.36;77.11;97357.56;107045;1274;95275;-80
2022/06/18 01:21:11;;;;;;;7.50;3.90;;;;;;;13.37;77.09;97358.00;106851;1274;168175;-81
2022/06/18 01:23:49;;;;;;;4.70;2.90;;;;;;;13.41;77.26;97354.67;107297;1274;94611;-80
2022/06/18 01:26:21;;;;;;;5.70;3.10;;;;;;;13.46;77.22;97350.80;106863;1274;154453;-80
2022/06/18 01:28:53;;;;;;;4.80;2.90;;;;;;;13.49;77.10;97351.88;107055;1273;87975;-81
2022/06/18 01:31:25;;;;;;;6.00;3.20;;;;;;;13.48;76.95;97347.14;106864;1275;146567;-81
2022/06/18 01:33:57;;;;;;;5.70;3.30;;;;;;;13.48;76.91;97343.80;107085;1274;101945;-80
2022/06/18 01:36:31;;;;;;;5.60;3.00;;;;;;;13.47;76.83;97343.43;106807;1274;170092;-80
2022/06/18 01:39:06;;;;;;;5.60;3.30;;;;;;;13.47;77.02;97341.58;107031;1274;135496;-81
2022/06/18 01:41:51;;;;;;;8.30;3.60;;;;;;;13.52;77.02;97346.27;106792;1274;153507;-81
2022/06/18 01:44:30;;;;;;;4.10;3.10;;;;;;;13.54;76.98;97339.82;107065;1274;105709;-81
2022/06/18 01:47:07;;;;;;;6.10;3.60;;;;;;;13.54;76.83;97337.90;105399;1274;2212909;-80
2022/06/18 01:49:43;;;;;;;6.60;3.30;;;;;;;13.48;76.90;97333.36;107188;1274;86795;-81
2022/06/18 01:52:20;;;;;;;7.00;3.60;;;;;;;13.45;77.00;97330.67;105273;1274;1930117;-80
2022/06/18 01:54:56;;;;;;;4.80;3.30;;;;;;;13.44;77.06;97331.42;107156;1274;106896;-80
2022/06/18 01:57:32;;;;;;;3.80;3.40;;;;;;;13.45;77.01;97331.62;106734;1274;232636;-81
2022/06/18 02:00:12;;;;;;;4.00;3.00;;;;;;;13.45;77.11;97331.89;107053;1275;100834;-80
2022/06/18 02:02:45;;;;;;;4.90;3.40;;;;;;;13.47;77.10;97328.04;106980;1274;193645;-80
2022/06/18 02:05:18;;;;;;;5.70;3.60;;;;;;;13.50;77.19;97326.10;107107;1274;96195;-80
2022/06/18 02:07:53;;;;;;;4.40;3.30;;;;;;;13.54;76.97;97324.90;106700;1274;164378;-80
2022/06/18 02:10:28;;;;;;;8.80;3.40;;;;;;;13.56;76.99;97324.13;105768;1274;1794243;-81
2022/06/18 02:13:03;;;;;;;4.40;2.80;;;;;;;13.55;76.86;97327.67;106685;1275;220552;-81
2022/06/18 02:15:39;;;;;;;4.50;3.10;;;;;;;13.51;76.76;97325.92;107077;1274;103320;-80
2022/06/18 02:18:14;;;;;;;4.30;2.90;;;;;;;13.47;76.94;97322.50;106794;1274;179872;-81
2022/06/18 02:20:49;;;;;;;7.50;3.00;;;;;;;13.45;76.99;97322.67;107114;1274;86650;-80
2022/06/18 02:23:23;;;;;;;5.80;3.40;;;;;;;13.48;76.99;97322.54;105835;1274;1445110;-80
2022/06/18 02:25:55;;;;;;;5.30;3.00;;;;;;;13.51;77.09;97323.90;107044;1274;98567;-80
2022/06/18 02:28:28;;;;;;;5.70;3.10;;;;;;;13.54;76.87;97324.80;106821;1274;167667;-80
2022/06/18 02:31:01;;;;;;;5.50;2.70;;;;;;;13.54;76.86;97324.10;104015;1274;2011727;-80
2022/06/18 02:33:38;;;;;;;4.80;3.00;;;;;;;13.52;76.77;97325.02;106840;1275;141723;-80
2022/06/18 02:36:15;;;;;;;5.80;3.40;;;;;;;13.54;76.73;97324.05;107216;1274;94180;-80
2022/06/18 02:38:48;;;;;;;5.70;3.00;;;;;;;13.54;76.81;97321.81;107068;1274;84502;-80
2022/06/18 02:41:19;;;;;;;8.70;3.30;;;;;;;13.58;76.84;97322.62;106897;1274;139149;-80
2022/06/18 02:43:53;;;;;;;7.90;3.60;;;;;;;13.63;76.79;97320.44;107099;1274;140030;-80
2022/06/18 02:46:24;;;;;;;5.90;3.50;;;;;;;13.66;76.61;97319.52;106722;1274;168888;-80
2022/06/18 02:48:56;;;;;;;5.30;3.30;;;;;;;13.65;76.51;97318.24;107085;1274;87363;-80
2022/06/18 02:51:28;;;;;;;5.10;3.00;;;;;;;13.64;76.52;97319.62;105243;1274;2215108;-80
2022/06/18 02:53:59;;;;;;;5.10;2.80;;;;;;;13.64;76.52;97321.02;106954;1275;168850;-80
2022/06/18 02:56:31;;;;;;;6.30;3.10;;;;;;;13.66;76.45;97320.91;107064;1275;106246;-80
2022/06/18 02:59:04;;;;;;;4.30;2.80;;;;;;;13.68;76.38;97320.46;106778;1275;184024;-80
2022/06/18 03:01:36;;;;;;;4.70;3.10;;;;;;;13.70;76.31;97318.84;107147;1275;71476;-80
2022/06/18 03:04:08;;;;;;;4.90;3.00;;;;;;;13.71;76.32;97318.67;107058;1274;172913;-80
2022/06/18 03:06:40;;;;;;;4.90;3.20;;;;;;;13.71;76.03;97315.69;107197;1274;104122;-80
2022/06/18 03:09:11;;;;;;;4.80;2.70;;;;;;;13.72;76.12;97314.29;107104;1274;152075;-80
2022/06/18 03:14:31;;;;;;;5.70;2.90;;;;;;;13.75;75.98;97315.00;106956;1274;140650;-80
2022/06/18 03:17:03;;;;;;;4.20;3.20;;;;;;;13.78;76.02;97311.83;106830;1274;174560;-80
2022/06/18 03:19:40;;;;;;;6.20;3.30;;;;;;;13.85;75.90;97313.69;107024;1274;119233;-80
2022/06/18 03:22:16;;;;;;;4.60;3.10;;;;;;;13.89;75.71;97313.22;106926;1275;206148;-80
2022/06/18 03:24:48;;;;;;;5.20;3.10;;;;;;;13.90;75.65;97311.87;107097;1274;80111;-79
2022/06/18 03:27:20;;;;;;;4.60;2.50;;;;;;;13.93;75.68;97310.95;106765;1274;187749;-80
2022/06/18 03:29:52;;;;;;;5.40;3.10;;;;;;;13.95;75.59;97313.01;107130;1274;81511;-80
2022/06/18 03:32:23;;;;;;;4.00;2.70;;;;;;;13.96;75.51;97313.48;106984;1274;151093;-80
2022/06/18 03:34:55;;;;;;;4.60;2.80;;;;;;;14.03;75.41;97320.38;107099;1274;98210;-80
2022/06/18 03:37:26;;;;;;;5.40;3.00;;;;;;;14.07;75.34;97318.27;104519;1274;2145678;-80
2022/06/18 03:39:57;;;;;;;5.90;2.90;;;;;;;14.09;75.17;97320.22;107102;1274;104542;-80
2022/06/18 03:42:29;;;;;;;4.60;2.90;;;;;;;14.13;74.97;97318.15;106951;1274;146020;-81
2022/06/18 03:45:00;;;;;;;4.90;3.10;;;;;;;14.18;75.04;97320.12;107061;1275;131859;-80
2022/06/18 03:47:32;;;;;;;5.90;3.20;;;;;;;14.21;74.82;97317.89;106910;1274;164511;-80
2022/06/18 03:50:03;;;;;;;5.70;2.80;;;;;;;14.27;74.67;97320.35;106901;1274;171801;-80
2022/06/18 03:52:34;;;;;;;5.80;2.90;;;;;;;14.32;74.60;97314.90;107107;1274;76403;-80
2022/06/18 03:55:07;;;;;;;4.90;3.00;;;;;;;14.35;74.58;97312.83;105508;1274;1978243;-80
2022/06/18 03:57:39;;;;;;;6.50;3.10;;;;;;;14.39;74.43;97311.02;107195;1275;80301;-80
2022/06/18 04:00:20;;;;;;;5.00;2.80;;;;;;;14.45;74.41;97313.58;107155;1274;165970;-80
2022/06/18 04:02:49;;;;;;;;;;;;;;;14.53;74.23;97314.63;106973;1274;191000;-79
2022/06/18 04:05:20;;;;;;;4.70;3.00;;;;;;;14.58;74.21;97310.61;107063;1275;78024;-80
2022/06/18 04:07:52;;;;;;;4.20;2.60;;;;;;;14.61;73.90;97313.06;107057;1274;94845;-80
2022/06/18 04:10:25;;;;;;;3.10;2.20;;;;;;;14.66;73.79;97305.98;106657;1274;218678;-80
2022/06/18 04:12:56;;;;;;;5.40;2.90;;;;;;;14.68;73.42;97301.24;106993;1274;202122;-80
2022/06/18 04:15:27;;;;;;;4.40;2.50;;;;;;;14.71;73.38;97303.92;105605;1274;1838216;-80
2022/06/18 04:17:59;;;;;;;4.70;2.40;;;;;;;14.73;73.25;97306.09;107018;1274;147777;-80
2022/06/18 04:20:34;;;;;;;3.10;2.10;;;;;;;14.76;73.20;97303.59;106701;1274;196087;-80
2022/06/18 04:23:06;;;;;;;3.90;2.80;;;;;;;14.79;72.98;97305.80;107066;1274;93083;-79
2022/06/18 04:25:37;;;;;;;4.80;2.50;;;;;;;14.84;72.93;97307.23;105497;1274;1816067;-79
2022/06/18 04:28:09;;;;;;;4.60;3.00;;;;;;;14.88;72.87;97309.58;107129;1275;111394;-79
2022/06/18 04:30:41;;;;;;;4.90;3.10;;;;;;;14.93;72.79;97310.80;107195;1274;112605;-79
2022/06/18 04:33:15;;;;;;;5.30;2.50;;;;;;;14.98;72.56;97312.11;106186;1274;1528612;-80
2022/06/18 04:35:47;;;;;;;4.00;2.30;;;;;;;15.02;72.43;97317.16;107094;1274;111165;-79
2022/06/18 04:38:19;;;;;;;4.40;2.50;;;;;;;15.08;72.47;97316.13;106889;1274;156598;-79
2022/06/18 04:40:51;;;;;;;5.60;2.60;;;;;;;15.17;72.34;97313.64;107026;1274;99093;-79
2022/06/18 04:43:22;;;;;;;4.50;2.70;;;;;;;15.22;72.13;97317.79;105857;1274;1355792;-79
2022/06/18 04:45:55;;;;;;;3.40;2.30;;;;;;;15.32;72.08;97319.44;107100;1274;54576;-79
2022/06/18 04:48:27;;;;;;;4.40;3.10;;;;;;;15.39;71.77;97319.77;106622;1274;219457;-80
2022/06/18 04:50:58;;;;;;;4.50;2.60;;;;;;;15.49;71.76;97318.02;106612;1274;261407;-79
2022/06/18 04:53:32;;;;;;;9.00;3.00;;;;;;;15.53;70.97;97319.34;106747;1274;113060;-79
2022/06/18 04:56:03;;;;;;;4.00;2.50;;;;;;;15.59;71.21;97323.88;106377;1274;243448;-79
2022/06/18 04:58:36;;;;;;;3.90;2.70;;;;;;;15.66;70.94;97328.39;106757;1274;94160;-79
2022/06/18 05:01:08;;;;;;;4.40;3.00;;;;;;;15.73;70.61;97324.31;106466;1274;230930;-79
2022/06/18 05:03:39;;;;;;;4.00;2.70;;;;;;;15.82;70.68;97328.45;106948;1274;87947;-79
2022/06/18 05:06:13;;;;;;;5.40;2.70;;;;;;;15.94;70.38;97327.21;103730;1275;2220703;-78
2022/06/18 05:08:46;;;;;;;3.90;3.10;;;;;;;16.04;70.06;97330.19;106519;1274;210246;-79
2022/06/18 05:11:18;;;;;;;5.70;2.70;;;;;;;16.15;69.83;97325.88;103746;1274;2154883;-79
2022/06/18 05:13:49;;;;;;;3.80;2.60;;;;;;;16.40;69.79;97327.80;106813;1275;75696;-78
2022/06/18 05:16:21;;;;;;;5.00;2.70;;;;;;;16.59;69.21;97329.56;104975;1274;2646741;-79
2022/06/18 05:18:54;;;;;;;5.20;2.80;;;;;;;16.89;68.75;97327.84;104951;1274;2549687;-79
2022/06/18 05:21:26;;;;;;;5.70;3.00;;;;;;;17.22;68.02;97326.78;106376;1274;219075;-79
2022/06/18 05:23:57;;;;;;;6.00;2.60;;;;;;;17.96;67.93;97325.35;106795;1275;81271;-79
2022/06/18 05:26:29;;;;;;;3.90;2.50;;;;;;;20.01;66.44;97325.08;105624;1274;1264804;-79
2022/06/18 05:29:01;;;;;;;4.10;2.50;;;;;;;22.21;62.02;97319.70;105418;1274;1877525;-79
2022/06/18 05:31:34;;;;;;;4.80;2.60;;;;;;;24.02;58.97;97324.27;105809;1274;1259894;-79
2022/06/18 05:34:05;;;;;;;5.80;2.60;;;;;;;25.53;55.05;97327.93;106481;1274;216954;-80
2022/06/18 05:36:37;;;;;;;3.30;1.90;;;;;;;26.44;51.52;97321.29;107093;1274;78723;-80
2022/06/18 05:39:12;;;;;;;5.80;2.30;;;;;;;27.20;48.67;97330.91;106788;1275;194506;-79
2022/06/18 05:41:43;;;;;;;2.40;2.00;;;;;;;27.43;45.91;97327.00;107220;1273;89794;-80
2022/06/18 05:44:14;;;;;;;3.20;1.90;;;;;;;27.98;45.83;97327.23;105608;1274;1856942;-80
2022/06/18 05:46:49;;;;;;;3.10;2.10;;;;;;;28.55;42.41;97324.11;106995;1274;91030;-80
2022/06/18 05:49:21;;;;;;;3.50;1.80;;;;;;;28.68;42.04;97325.60;104991;1275;1350733;-80
2022/06/18 05:51:52;;;;;;;2.90;1.90;;;;;;;28.93;41.31;97321.41;107056;1274;100483;-79
2022/06/18 05:54:24;;;;;;;3.70;2.30;;;;;;;29.24;40.08;97323.93;105805;1274;1346608;-80
2022/06/18 05:56:55;;;;;;;4.00;1.90;;;;;;;29.53;40.28;97324.07;107023;1274;112819;-80
2022/06/18 05:59:27;;;;;;;3.80;2.10;;;;;;;30.37;39.72;97325.27;106519;1274;384745;-80
2022/06/18 06:01:58;;;;;;;4.00;2.10;;;;;;;30.90;38.27;97318.54;107107;1274;94811;-80
2022/06/18 06:04:32;;;;;;;3.20;1.90;;;;;;;31.19;36.59;97320.83;106728;1274;214842;-79
2022/06/18 06:07:03;;;;;;;4.00;2.20;;;;;;;31.45;37.22;97317.21;107056;1274;101097;-81
2022/06/18 06:12:23;;;;;;;3.50;2.10;;;;;;;32.27;35.40;97315.21;106897;1274;193294;-81
2022/06/18 06:14:55;;;;;;;4.40;1.60;;;;;;;32.71;34.58;97313.03;105746;1274;1610618;-81
2022/06/18 06:17:28;;;;;;;2.20;1.60;;;;;;;32.81;34.24;97313.18;107085;1274;80836;-80
2022/06/18 06:20:07;;;;;;;4.20;2.00;;;;;;;32.91;33.39;97314.98;106608;1274;280824;-81
2022/06/18 06:22:39;;;;;;;2.80;1.80;;;;;;;33.32;33.74;97313.89;107053;1274;156811;-81
2022/06/18 06:25:11;;;;;;;5.30;2.10;;;;;;;33.91;33.11;97313.63;105116;1274;1810230;-81
2022/06/18 06:27:43;;;;;;;4.10;2.00;;;;;;;34.39;32.15;97309.47;107228;1274;90785;-81
2022/06/18 06:30:17;;;;;;;3.10;2.10;;;;;;;34.09;30.96;97311.33;106899;1274;158230;-81
2022/06/18 06:32:49;;;;;;;1.90;1.70;;;;;;;33.99;31.30;97308.58;106986;1274;173502;-81
2022/06/18 06:35:21;;;;;;;2.10;1.50;;;;;;;34.03;30.43;97302.70;105816;1274;1647741;-81
2022/06/18 06:37:53;;;;;;;2.40;1.50;;;;;;;33.91;30.34;97300.74;106033;1274;1427782;-82
2022/06/18 06:40:25;;;;;;;2.00;1.40;;;;;;;34.21;30.18;97301.95;107207;1274;110374;-81
2022/06/18 06:42:58;;;;;;;2.50;1.60;;;;;;;34.48;29.41;97300.98;106798;1274;164464;-81
2022/06/18 06:45:32;;;;;;;3.30;1.70;;;;;;;34.81;29.64;97300.41;107091;1274;135704;-82
2022/06/18 06:48:05;;;;;;;3.80;1.80;;;;;;;35.44;29.08;97291.73;106787;1274;293945;-81
2022/06/18 06:50:36;;;;;;;4.40;1.80;;;;;;;36.00;29.19;97298.69;106889;1274;178392;-81
2022/06/18 06:53:08;;;;;;;2.30;1.50;;;;;;;36.73;28.07;97291.81;105564;1274;2112366;-82
2022/06/18 06:58:29;;;;;;;3.30;1.40;;;;;;;36.99;27.04;97288.46;107051;1274;137892;-82
2022/06/18 07:01:02;;;;;;;2.30;1.30;;;;;;;37.37;27.56;97292.21;106780;1274;222444;-81
2022/06/18 07:03:35;;;;;;;2.60;1.20;;;;;;;38.18;26.72;97289.78;107085;1274;93070;-82
2022/06/18 07:06:08;;;;;;;1.70;1.20;;;;;;;38.76;26.10;97291.02;105437;1274;1753615;-82
2022/06/18 07:08:43;;;;;;;3.00;1.50;;;;;;;38.81;25.21;97290.78;107160;1275;97394;-82
2022/06/18 07:11:17;;;;;;;2.80;1.60;;;;;;;38.33;25.25;97289.63;106991;1275;112303;-81
2022/06/18 07:13:52;;;;;;;2.20;1.20;;;;;;;38.87;25.41;97287.95;104433;1275;2078605;-81
2022/06/18 07:16:24;;;;;;;1.60;1.30;;;;;;;39.05;24.98;97284.89;106832;1277;95898;-81
2022/06/18 07:18:59;;;;;;;3.30;1.60;;;;;;;39.04;24.60;97281.11;106564;1275;350446;-82
2022/06/18 07:21:34;;;;;;;3.70;1.10;;;;;;;39.26;23.68;97283.34;106900;1275;130953;-82
2022/06/18 07:24:09;;;;;;;2.80;1.20;;;;;;;39.59;23.05;97283.63;104101;1275;2047174;-82
2022/06/18 07:26:40;;;;;;;2.10;1.30;;;;;;;39.12;22.74;97280.19;107194;1275;137824;-82
2022/06/18 07:29:13;;;;;;;1.50;1.20;;;;;;;38.99;23.83;97281.28;105046;1274;2639524;-82
2022/06/18 07:31:45;;;;;;;2.10;1.40;;;;;;;39.66;22.62;97283.49;106985;1274;109560;-81
2022/06/18 07:34:17;;;;;;;2.00;1.10;;;;;;;40.07;22.75;97283.94;106860;1274;158701;-82
2022/06/18 07:36:49;;;;;;;2.70;1.30;;;;;;;40.56;22.08;97285.86;107079;1274;100012;-81
2022/06/18 07:39:21;;;;;;;3.00;1.40;;;;;;;40.51;21.13;97282.42;106787;1274;225033;-81
2022/06/18 07:41:58;;;;;;;2.30;1.10;;;;;;;40.35;20.98;97282.30;107072;1274;90697;-80
2022/06/18 07:44:31;;;;;;;2.20;1.30;;;;;;;40.15;20.22;97283.03;105252;1274;2008167;-80
2022/06/18 07:47:03;;;;;;;1.90;1.20;;;;;;;40.23;20.47;97285.16;106989;1273;210707;-80
2022/06/18 07:49:35;;;;;;;2.60;1.20;;;;;;;40.37;20.87;97282.86;105652;1274;1769527;-81
2022/06/18 07:52:08;;;;;;;3.10;1.00;;;;;;;40.45;20.45;97283.00;107033;1274;95645;-80
2022/06/18 07:54:40;;;;;;;2.50;1.40;;;;;;;40.50;20.78;97282.42;106946;1274;168519;-81
2022/06/18 07:57:11;;;;;;;1.90;1.70;;;;;;;41.18;20.78;97280.83;107119;1274;105557;-80
2022/06/18 07:59:43;;;;;;;1.60;1.30;;;;;;;40.44;19.01;97280.60;107024;1274;192685;-80
2022/06/18 08:02:16;;;;;;;2.00;1.30;;;;;;;38.99;19.46;97282.30;106947;1274;138657;-79
2022/06/18 08:04:50;;;;;;;1.50;1.00;;;;;;;38.37;19.97;97285.86;107062;1274;93431;-81
2022/06/18 08:07:21;;;;;;;1.00;0.80;;;;;;;37.93;19.60;97283.70;106761;1274;184010;-82
2022/06/18 08:09:54;;;;;;;1.20;1.00;;;;;;;37.28;19.71;97282.35;107067;1274;90127;-82
2022/06/18 08:12:26;;;;;;;1.70;1.10;;;;;;;37.80;20.31;97281.52;106604;1275;279148;-82
2022/06/18 08:14:58;;;;;;;1.70;1.00;;;;;;;38.88;19.92;97286.64;107097;1274;96572;-82
2022/06/18 08:17:31;;;;;;;1.20;1.10;;;;;;;39.80;19.31;97285.75;105538;1275;2060243;-82
2022/06/18 08:20:05;;;;;;;1.10;1.00;;;;;;;40.36;19.17;97291.92;105475;1275;1976993;-82
2022/06/18 08:22:39;;;;;;;3.50;1.50;;;;;;;40.24;18.93;97285.03;106824;1275;187030;-82
2022/06/18 08:25:14;;;;;;;1.80;1.20;;;;;;;39.00;19.33;97291.75;107236;1274;141972;-82
2022/06/18 08:27:47;;;;;;;1.20;1.10;;;;;;;37.41;20.45;97288.95;107064;1274;135989;-81
2022/06/18 08:30:20;;;;;;;2.60;1.10;;;;;;;36.69;21.56;97288.36;106630;1274;194803;-82
2022/06/18 08:32:52;;;;;;;1.80;0.90;;;;;;;37.04;21.90;97287.14;107084;1274;115449;-83
2022/06/18 08:35:23;;;;;;;3.20;1.30;;;;;;;37.38;20.34;97283.23;106784;1274;193169;-80
2022/06/18 08:37:56;;;;;;;2.50;1.10;;;;;;;36.44;20.42;97285.40;106864;1274;211238;-82
2022/06/18 08:40:44;;;;;;;1.50;0.90;;;;;;;34.23;21.45;97286.32;106934;1274;122287;-82
2022/06/18 08:43:31;;;;;;;2.00;1.10;;;;;;;32.85;22.65;97285.27;107115;1274;85244;-82
2022/06/18 08:46:13;;;;;;;1.80;1.20;;;;;;;31.89;23.71;97287.48;106025;1275;1380835;-82
2022/06/18 08:49:01;;;;;;;2.40;1.20;;;;;;;31.87;24.67;97283.17;107079;1275;108015;-81
2022/06/18 08:51:39;;;;;;;3.00;1.30;;;;;;;31.33;25.46;97278.81;106950;1275;136439;-81
2022/06/18 08:54:22;;;;;;;3.20;1.40;;;;;;;30.44;25.91;97276.48;107223;1275;85570;-81
2022/06/18 08:57:01;;;;;;;2.50;1.20;;;;;;;28.99;27.04;97278.30;107009;1274;153090;-81
2022/06/18 08:59:53;;;;;;;2.50;1.50;;;;;;;27.91;28.68;97272.98;106942;1274;156356;-81
2022/06/18 09:02:32;;;;;;;1.70;1.20;;;;;;;27.16;29.56;97270.97;106851;1274;196298;-81
2022/06/18 09:05:15;;;;;;;1.90;1.70;;;;;;;27.22;30.31;97266.63;107026;1275;134483;-80
2022/06/18 09:08:18;;;;;;;3.90;1.50;;;;;;;27.89;31.27;97259.09;106593;1274;253882;-80
2022/06/18 09:11:04;;;;;;;1.70;1.30;;;;;;;28.42;30.96;97254.41;107023;1274;103346;-81
2022/06/18 09:13:41;;;;;;;4.30;1.60;;;;;;;28.26;30.33;97250.08;106900;1274;154877;-81
2022/06/18 09:16:19;;;;;;;4.20;1.60;;;;;;;27.95;31.32;97245.99;107139;1274;116325;-80
2022/06/18 09:18:56;;;;;;;3.30;2.00;;;;;;;28.02;31.63;97240.52;106959;1274;157367;-80
2022/06/18 09:21:33;;;;;;;2.00;1.40;;;;;;;27.57;32.06;97239.63;106979;1274;187056;-81
2022/06/18 09:24:07;;;;;;;1.50;1.40;;;;;;;27.53;31.89;97237.23;105989;1274;1585934;-81
2022/06/18 09:26:42;;;;;;;3.80;1.50;;;;;;;27.52;31.69;97230.45;106919;1275;141283;-80
2022/06/18 09:29:20;;;;;;;2.30;1.90;;;;;;;27.09;32.63;97233.09;107280;1274;88146;-80
2022/06/18 09:31:59;;;;;;;2.80;1.80;;;;;;;26.21;33.68;97230.75;106778;1275;257265;-80
2022/06/18 09:34:34;;;;;;;2.20;1.60;;;;;;;26.09;34.18;97230.56;107116;1274;79746;-80
2022/06/18 09:37:10;;;;;;;2.40;1.20;;;;;;;25.93;33.70;97233.50;105344;1274;2082974;-80
2022/06/18 09:39:45;;;;;;;2.10;1.50;;;;;;;25.26;33.54;97236.75;107307;1275;77176;-80
2022/06/18 09:42:24;;;;;;;2.50;1.50;;;;;;;24.86;34.37;97240.02;106985;1275;141967;-80
2022/06/18 09:45:02;;;;;;;2.10;1.30;;;;;;;24.75;35.11;97234.05;107175;1274;76893;-80
2022/06/18 09:47:38;;;;;;;1.60;1.20;;;;;;;24.92;35.56;97235.44;105464;1274;1834850;-80
2022/06/18 09:50:21;;;;;;;1.40;1.30;;;;;;;25.04;34.67;97229.73;107305;1274;80344;-80
2022/06/18 09:52:58;;;;;;;1.80;1.30;;;;;;;25.27;34.41;97223.98;106977;1275;128306;-80
2022/06/18 09:55:40;;;;;;;2.00;1.10;;;;;;;25.42;34.17;97219.30;107171;1274;45552;-80
2022/06/18 09:58:17;;;;;;;3.50;1.50;;;;;;;25.53;33.95;97213.36;105977;1274;1842315;-80
2022/06/18 10:00:52;;;;;;;3.80;1.50;;;;;;;25.56;33.51;97211.95;107068;1275;91994;-80
2022/06/18 10:09:12;;;;;;;2.90;1.30;;;;;;;25.41;34.38;97200.98;104312;1275;2124822;-80
2022/06/18 10:11:45;;;;;;;2.90;1.40;;;;;;;25.30;33.70;97207.68;107232;1274;95498;-81
2022/06/18 10:14:20;;;;;;;3.90;1.30;;;;;;;24.96;33.97;97206.14;106823;1274;191761;-80
2022/06/18 10:17:04;;;;;;;2.00;1.30;;;;;;;24.95;34.95;97204.34;107139;1274;87682;-80
2022/06/18 10:19:43;;;;;;;1.90;1.10;;;;;;;25.38;35.19;97196.80;106812;1274;191937;-80
2022/06/18 10:22:26;;;;;;;3.20;1.40;;;;;;;25.75;35.35;97192.20;107233;1274;46923;-80
2022/06/18 10:25:06;;;;;;;2.50;1.30;;;;;;;26.02;34.48;97188.68;106426;1274;237015;-80
2022/06/18 10:27:46;;;;;;;2.40;1.10;;;;;;;26.19;34.25;97186.29;107087;1274;109065;-80
2022/06/18 10:30:25;;;;;;;3.60;1.30;;;;;;;26.43;34.28;97173.62;106984;1274;134465;-80
2022/06/18 10:33:04;;;;;;;2.60;1.30;;;;;;;26.67;34.20;97174.25;107201;1274;95614;-78
2022/06/18 10:35:48;;;;;;;1.80;1.10;;;;;;;26.80;33.51;97170.84;107315;1275;31288;-85
2022/06/18 10:38:42;;;;;;;2.20;1.10;;;;;;;26.59;32.41;97168.86;107410;1275;48085;-83
2022/06/18 10:41:22;;;;;;;2.80;1.30;;;;;;;26.48;33.43;97163.82;107241;1275;32585;-79
2022/06/18 10:44:13;;;;;;;1.40;1.10;;;;;;;26.54;33.41;97160.40;107285;1274;47942;-81
2022/06/18 10:46:45;;;;;;;3.80;1.20;;;;;;;26.26;34.05;97162.63;107392;1275;36906;-79
2022/06/18 10:49:27;;;;;;;1.40;1.00;;;;;;;26.35;33.29;97162.48;107361;1275;48716;-81
2022/06/18 10:51:59;;;;;;;1.50;1.20;;;;;;;26.08;32.92;97164.70;107437;1275;34842;-81
2022/06/18 10:54:37;;;;;;;1.80;1.00;;;;;;;25.96;32.82;97155.45;107396;1275;31150;-81
2022/06/18 10:57:21;;;;;;;2.30;1.20;;;;;;;26.10;32.59;97152.15;107352;1275;45233;-81
2022/06/18 10:59:53;;;;;;;1.80;1.20;;;;;;;26.25;32.21;97146.02;107348;1274;37211;-80
2022/06/18 11:02:34;;;;;;;1.90;1.30;;;;;;;26.07;32.12;97147.08;107375;1275;55052;-81
2022/06/18 11:05:19;;;;;;;4.90;1.60;;;;;;;25.87;32.37;97145.67;107359;1274;36992;-81
2022/06/18 11:07:53;;;;;;;5.60;1.70;;;;;;;25.97;32.60;97148.15;107384;1275;35114;-80
2022/06/18 11:10:37;;;;;;;2.10;1.10;;;;;;;26.04;32.59;97144.69;107248;1274;38710;-81
2022/06/18 11:13:21;;;;;;;2.90;1.10;;;;;;;25.58;31.13;97141.30;107308;1275;34787;-79
2022/06/18 11:16:07;;;;;;;1.70;1.20;;;;;;;25.17;31.49;97138.58;107220;1275;32841;-81
2022/06/18 11:18:46;;;;;;;1.60;1.20;;;;;;;24.93;31.22;97144.69;107210;1275;45187;-81
2022/06/18 11:21:24;;;;;;;1.80;1.10;;;;;;;25.05;32.09;97140.83;107220;1275;33986;-81
2022/06/18 11:23:58;;;;;;;2.60;1.10;;;;;;;25.10;31.85;97139.16;107240;1275;36274;-83
2022/06/18 11:26:31;;;;;;;1.50;1.30;;;;;;;25.04;31.99;97136.86;107221;1274;35356;-83
2022/06/18 11:29:12;;;;;;;1.80;0.70;;;;;;;25.19;31.96;97132.65;107225;1274;36563;-84
2022/06/18 11:31:49;;;;;;;2.90;1.00;;;;;;;25.54;31.89;97129.52;107286;1275;31648;-82
2022/06/18 11:34:25;;;;;;;1.90;1.00;;;;;;;25.62;31.67;97131.29;106988;1275;42100;-81
2022/06/18 11:36:59;;;;;;;2.50;1.00;;;;;;;25.62;32.25;97133.93;107180;1274;34395;-82
2022/06/18 11:39:36;;;;;;;1.70;1.10;;;;;;;25.63;32.44;97132.70;107256;1275;33987;-81
2022/06/18 11:42:20;;;;;;;1.40;1.00;;;;;;;25.72;32.53;97128.22;107224;1274;35709;-82
2022/06/18 11:44:58;;;;;;;2.40;1.30;;;;;;;25.89;32.84;97119.41;107209;1275;36694;-82
2022/06/18 11:47:36;;;;;;;1.10;1.00;;;;;;;25.96;33.08;97115.39;107256;1275;41047;-84
2022/06/18 11:50:18;;;;;;;1.80;1.00;;;;;;;25.96;32.34;97108.18;107157;1275;45652;-82
2022/06/18 11:52:56;;;;;;;1.40;0.90;;;;;;;25.91;32.31;97104.83;107154;1275;40480;-82
2022/06/18 11:55:31;;;;;;;3.70;1.00;;;;;;;25.81;31.72;97106.79;107207;1275;32014;-84
2022/06/18 11:58:08;;;;;;;1.10;0.90;;;;;;;25.87;32.82;97104.61;107211;1275;40035;-83
2022/06/18 12:00:50;;;;;;;2.00;1.10;;;;;;;26.01;33.19;97096.92;107242;1275;32828;-83
2022/06/18 12:03:37;;;;;;;2.00;1.20;;;;;;;25.72;33.06;97090.65;107158;1275;39931;-84
2022/06/18 12:06:14;;;;;;;1.60;1.00;;;;;;;25.63;33.04;97087.17;107309;1275;30087;-84
2022/06/18 12:08:47;;;;;;;1.60;1.00;;;;;;;25.92;34.26;97080.72;107192;1275;42712;-83